Time;durP1;ratioP1;P1;durP2;ratioP2;P2;SDS_P1;SDS_P2;PMS_P1;PMS_P2;Temp;Humidity;BMP_temperature;BMP_pressure;BME280_temperature;BME280_humidity;BME280_pressure;Samples;Min_cycle;Max_cycle;Signal;HPM_P1;HPM_P2
2024/02/13 00:02:04;;;;;;;17.35;10.13;;;;;;;7.10;100.00;99239.80;1819572;78;26228;-52
2024/02/13 00:04:33;;;;;;;15.85;9.28;;;;;;;7.09;100.00;99238.20;1787447;80;25739;-53
2024/02/13 00:06:59;;;;;;;17.25;9.68;;;;;;;7.09;100.00;99248.95;1795619;79;26045;-50
2024/02/13 00:09:27;;;;;;;19.00;11.10;;;;;;;7.08;100.00;99237.42;1777812;80;25452;-53
2024/02/13 00:11:54;;;;;;;19.45;11.70;;;;;;;7.07;100.00;99237.72;1790236;80;27884;-50
2024/02/13 00:14:21;;;;;;;17.65;10.65;;;;;;;7.09;100.00;99238.20;1790118;80;25966;-50
2024/02/13 00:16:48;;;;;;;19.23;10.03;;;;;;;7.09;100.00;99240.89;1790254;80;25594;-52
2024/02/13 00:19:16;;;;;;;15.85;9.35;;;;;;;7.08;100.00;99241.98;1777703;80;25611;-53
2024/02/13 00:21:44;;;;;;;14.13;9.60;;;;;;;7.07;100.00;99243.10;1790259;80;25563;-53
2024/02/13 00:24:10;;;;;;;15.38;9.55;;;;;;;7.06;100.00;99260.33;1790197;80;28532;-50
2024/02/13 00:26:38;;;;;;;12.13;8.48;;;;;;;7.04;100.00;99247.75;1790090;80;25613;-51
2024/02/13 00:29:04;;;;;;;16.12;9.03;;;;;;;7.01;100.00;99249.15;1790171;80;25384;-52
2024/02/13 00:31:31;;;;;;;12.07;8.05;;;;;;;7.00;100.00;99254.30;1790140;80;25572;-50
2024/02/13 00:33:59;;;;;;;11.22;7.55;;;;;;;6.98;100.00;99249.80;1777757;80;25390;-50
2024/02/13 00:36:25;;;;;;;13.18;7.97;;;;;;;6.96;100.00;99256.02;1809658;79;28435;-50
2024/02/13 00:38:52;;;;;;;10.93;7.37;;;;;;;6.94;100.00;99267.63;1777655;80;25802;-50
2024/02/13 00:41:20;;;;;;;10.13;7.22;;;;;;;6.91;99.88;99252.11;1777702;80;25550;-50
2024/02/13 00:43:46;;;;;;;9.55;6.65;;;;;;;6.88;100.00;99257.57;1777675;80;25612;-50
2024/02/13 00:46:12;;;;;;;15.10;6.83;;;;;;;6.86;100.00;99263.00;1777688;80;25642;-51
2024/02/13 00:48:39;;;;;;;9.10;5.67;;;;;;;6.82;100.00;99266.86;1777713;80;27851;-50
2024/02/13 00:51:05;;;;;;;6.62;5.70;;;;;;;6.81;99.94;99270.67;1777612;80;25371;-49
2024/02/13 00:53:32;;;;;;;10.53;5.55;;;;;;;6.78;100.00;99275.31;1777689;80;25464;-50
2024/02/13 00:56:00;;;;;;;7.80;5.72;;;;;;;6.77;100.00;99273.71;1777661;80;25473;-50
2024/02/13 00:58:27;;;;;;;8.35;6.33;;;;;;;6.74;99.82;99278.35;1777554;80;25560;-50
2024/02/13 01:00:54;;;;;;;11.03;6.87;;;;;;;6.72;99.94;99275.19;1777689;80;28150;-52
2024/02/13 01:03:20;;;;;;;9.20;5.95;;;;;;;6.68;99.89;99281.73;1777647;80;25920;-49
2024/02/13 01:05:47;;;;;;;8.65;6.12;;;;;;;6.67;100.00;99290.88;1781156;80;25598;-50
2024/02/13 01:08:16;;;;;;;9.25;5.72;;;;;;;6.66;99.89;99281.25;1819628;78;25470;-49
2024/02/13 01:10:43;;;;;;;6.60;5.47;;;;;;;6.65;99.91;99289.05;1787402;80;25590;-50
2024/02/13 01:13:12;;;;;;;9.68;6.10;;;;;;;6.65;100.00;99288.27;1819635;78;27820;-50
2024/02/13 01:15:38;;;;;;;9.00;5.50;;;;;;;6.64;100.00;99290.17;1787479;80;28513;-50
2024/02/13 01:18:06;;;;;;;7.05;5.62;;;;;;;6.62;100.00;99292.35;1819626;78;25403;-50
2024/02/13 01:20:33;;;;;;;8.93;5.75;;;;;;;6.62;100.00;99314.41;1787560;80;25514;-50
2024/02/13 01:22:59;;;;;;;8.68;5.33;;;;;;;6.60;99.98;99301.83;1819638;78;25570;-50
2024/02/13 01:25:26;;;;;;;6.78;5.72;;;;;;;6.57;100.00;99308.59;1787317;80;27465;-51
2024/02/13 01:27:53;;;;;;;7.47;5.97;;;;;;;6.54;100.00;99301.95;1819531;78;25452;-52
2024/02/13 01:30:20;;;;;;;8.00;5.65;;;;;;;6.55;100.00;99308.11;1787380;80;25391;-50
2024/02/13 01:32:47;;;;;;;6.97;5.53;;;;;;;6.54;100.00;99305.98;1787321;80;26507;-51
2024/02/13 01:35:18;;;;;;;8.98;6.40;;;;;;;6.56;100.00;99310.27;1787346;80;25469;-53
2024/02/13 01:37:48;;;;;;;9.50;6.83;;;;;;;6.54;100.00;99319.42;1787425;80;28261;-52
2024/02/13 01:40:16;;;;;;;10.05;6.62;;;;;;;6.54;100.00;99318.64;1787314;80;25448;-50
2024/02/13 01:42:49;;;;;;;9.10;6.25;;;;;;;6.53;100.00;99321.06;1787435;80;25394;-53
2024/02/13 01:45:14;;;;;;;7.37;6.12;;;;;;;6.51;100.00;99321.38;1787103;80;25628;-53
2024/02/13 01:47:43;;;;;;;9.83;6.55;;;;;;;6.52;100.00;99318.13;1787369;80;25390;-53
2024/02/13 01:50:14;;;;;;;8.58;6.47;;;;;;;6.54;100.00;99321.32;1787478;80;28190;-53
2024/02/13 01:52:42;;;;;;;9.43;6.92;;;;;;;6.53;100.00;99326.44;1787297;80;25627;-51
2024/02/13 01:55:13;;;;;;;11.78;7.70;;;;;;;6.53;100.00;99318.38;1787340;80;25392;-53
2024/02/13 01:57:40;;;;;;;10.93;7.60;;;;;;;6.52;100.00;99327.00;1756786;80;25875;-53
2024/02/13 02:00:13;;;;;;;10.95;7.33;;;;;;;6.51;100.00;99325.95;1787358;80;25399;-50
2024/02/13 02:02:46;;;;;;;12.28;7.67;;;;;;;6.51;100.00;99324.62;1787391;80;27477;-49
2024/02/13 02:05:13;;;;;;;12.75;8.75;;;;;;;6.49;100.00;99330.84;1787284;80;25576;-53
2024/02/13 02:07:42;;;;;;;11.65;8.00;;;;;;;6.48;100.00;99331.37;1787343;80;25133;-50
2024/02/13 02:10:10;;;;;;;13.48;8.08;;;;;;;6.45;100.00;99327.98;1787350;80;25593;-53
2024/02/13 02:12:39;;;;;;;12.50;8.00;;;;;;;6.43;100.00;99332.05;1787397;80;25598;-50
2024/02/13 02:15:13;;;;;;;11.33;7.62;;;;;;;6.41;100.00;99331.57;1787389;80;27539;-50
2024/02/13 02:17:40;;;;;;;11.25;7.75;;;;;;;6.35;100.00;99339.75;1787290;80;25838;-51
2024/02/13 02:20:09;;;;;;;10.95;7.47;;;;;;;6.32;100.00;99338.22;1787323;80;25571;-50
2024/02/13 02:22:35;;;;;;;12.23;7.28;;;;;;;6.31;100.00;99343.34;1787434;80;25515;-52
2024/02/13 02:25:08;;;;;;;10.53;6.42;;;;;;;6.29;100.00;99349.56;1787314;80;25436;-50
2024/02/13 02:27:39;;;;;;;14.28;7.33;;;;;;;6.26;100.00;99344.23;1787354;80;27012;-51
2024/02/13 02:30:07;;;;;;;10.70;7.05;;;;;;;6.25;100.00;99344.53;1786345;80;25596;-50
2024/02/13 02:32:34;;;;;;;10.53;7.15;;;;;;;6.24;100.00;99354.49;1787369;80;25451;-50
2024/02/13 02:35:01;;;;;;;8.70;6.60;;;;;;;6.24;100.00;99362.55;1787276;80;25807;-50
2024/02/13 02:37:27;;;;;;;8.30;5.72;;;;;;;6.22;100.00;99360.72;1787330;80;25490;-49
2024/02/13 02:39:53;;;;;;;7.83;5.87;;;;;;;6.21;100.00;99356.99;1787405;80;27517;-50
2024/02/13 02:42:21;;;;;;;5.75;4.40;;;;;;;6.19;100.00;99370.72;1787306;80;25878;-50
2024/02/13 02:44:48;;;;;;;7.05;4.85;;;;;;;6.16;100.00;99361.91;1787291;80;25593;-50
2024/02/13 02:47:15;;;;;;;7.17;4.90;;;;;;;6.14;100.00;99380.23;1787306;80;25620;-50
2024/02/13 02:49:41;;;;;;;7.67;4.78;;;;;;;6.11;100.00;99376.27;1787372;80;25443;-50
2024/02/13 02:52:08;;;;;;;6.00;4.67;;;;;;;6.09;100.00;99370.38;1787305;80;27465;-50
2024/02/13 02:54:41;;;;;;;8.78;4.87;;;;;;;6.06;100.00;99380.41;1787190;80;26056;-50
2024/02/13 02:57:04;;;;;;;6.50;4.60;;;;;;;6.05;100.00;99382.05;1785006;80;25621;-49
2024/02/13 02:59:34;;;;;;;6.15;4.47;;;;;;;6.03;100.00;99385.55;1787244;80;25391;-50
2024/02/13 03:02:01;;;;;;;4.83;3.70;;;;;;;6.02;100.00;99390.14;1787352;80;25641;-50
2024/02/13 03:04:29;;;;;;;9.08;4.40;;;;;;;6.00;100.00;99403.62;1787247;80;28466;-50
2024/02/13 03:06:55;;;;;;;6.80;4.50;;;;;;;5.98;100.00;99410.08;1767123;79;25553;-50
2024/02/13 03:09:23;;;;;;;6.70;4.67;;;;;;;5.97;100.00;99405.80;1790397;80;25380;-53
2024/02/13 03:11:49;;;;;;;5.80;3.83;;;;;;;5.94;100.00;99407.73;1790505;80;25458;-50
2024/02/13 03:14:17;;;;;;;5.30;3.80;;;;;;;5.91;100.00;99400.27;1790552;80;25591;-51
2024/02/13 03:16:47;;;;;;;6.58;4.60;;;;;;;5.88;100.00;99410.25;1790688;80;28284;-51
2024/02/13 03:19:14;;;;;;;9.43;4.50;;;;;;;5.84;99.54;99417.84;1790700;80;25811;-51
2024/02/13 03:21:42;;;;;;;6.05;4.42;;;;;;;5.78;99.17;99413.14;1790519;80;25459;-52
2024/02/13 03:24:09;;;;;;;5.42;4.30;;;;;;;5.75;99.66;99421.22;1790455;80;25524;-50
2024/02/13 03:26:36;;;;;;;4.10;3.67;;;;;;;5.76;99.89;99426.06;1790512;80;25622;-51
2024/02/13 03:29:03;;;;;;;5.20;3.72;;;;;;;5.75;99.98;99420.44;1790516;80;27856;-50
2024/02/13 03:31:29;;;;;;;3.72;3.10;;;;;;;5.73;99.83;99425.31;1790423;80;25496;-50
2024/02/13 03:33:55;;;;;;;4.35;3.87;;;;;;;5.72;99.36;99423.19;1790510;80;25454;-49
2024/02/13 03:36:22;;;;;;;4.03;3.62;;;;;;;5.71;99.52;99426.16;1790466;80;25730;-50
2024/02/13 03:38:49;;;;;;;5.62;3.80;;;;;;;5.71;99.50;99431.53;1790537;80;25383;-50
2024/02/13 03:41:17;;;;;;;5.87;3.67;;;;;;;5.71;99.38;99436.89;1790520;80;27480;-50
2024/02/13 03:43:46;;;;;;;4.00;3.02;;;;;;;5.69;99.05;99437.74;1790412;80;25587;-50
2024/02/13 03:46:13;;;;;;;4.28;3.20;;;;;;;5.69;98.97;99439.08;1790283;80;25585;-50
2024/02/13 03:48:39;;;;;;;4.67;3.45;;;;;;;5.66;98.36;99445.04;1790546;80;26378;-51
2024/02/13 03:51:06;;;;;;;3.65;3.05;;;;;;;5.64;98.38;99453.94;1790526;80;25398;-50
2024/02/13 03:53:35;;;;;;;3.50;3.00;;;;;;;5.61;98.25;99454.75;1790504;80;28502;-50
2024/02/13 03:56:06;;;;;;;3.27;2.52;;;;;;;5.61;98.19;99464.70;1790578;80;25707;-50
2024/02/13 03:58:33;;;;;;;2.50;2.22;;;;;;;5.60;97.93;99466.59;1790530;80;25616;-50
2024/02/13 04:00:59;;;;;;;3.65;2.27;;;;;;;5.59;97.67;99467.67;1790447;80;26014;-50
2024/02/13 04:03:26;;;;;;;2.45;2.25;;;;;;;5.57;97.23;99475.78;1790505;80;25598;-50
2024/02/13 04:05:55;;;;;;;3.00;2.05;;;;;;;5.55;96.83;99483.30;1790436;80;27505;-50
2024/02/13 04:08:22;;;;;;;2.15;1.87;;;;;;;5.52;96.28;99484.70;1784711;80;25477;-52
2024/02/13 04:10:49;;;;;;;1.77;1.52;;;;;;;5.49;96.17;99483.16;1782990;80;25470;-50
2024/02/13 04:13:16;;;;;;;1.98;1.72;;;;;;;5.46;96.40;99498.50;1815037;79;25625;-50
2024/02/13 04:15:42;;;;;;;1.80;1.70;;;;;;;5.45;96.46;99495.03;1783016;80;25434;-50
2024/02/13 04:18:10;;;;;;;2.05;1.95;;;;;;;5.43;96.56;99498.52;1782974;80;27814;-51
2024/02/13 04:20:40;;;;;;;3.50;1.77;;;;;;;5.42;96.29;99500.97;1782870;80;25585;-51
2024/02/13 04:23:08;;;;;;;3.98;2.00;;;;;;;5.37;95.85;99497.82;1783015;80;25414;-50
2024/02/13 04:25:35;;;;;;;1.98;1.82;;;;;;;5.36;96.01;99500.27;1782876;80;25470;-50
2024/02/13 04:28:04;;;;;;;2.95;2.00;;;;;;;5.34;95.94;99503.77;1783019;80;25476;-54
2024/02/13 04:30:31;;;;;;;3.22;2.00;;;;;;;5.31;95.76;99503.56;1782908;80;27501;-51
2024/02/13 04:32:58;;;;;;;2.22;2.02;;;;;;;5.30;95.72;99500.09;1782859;80;25435;-51
2024/02/13 04:35:24;;;;;;;1.87;1.77;;;;;;;5.30;95.97;99506.01;1782944;80;25554;-50
2024/02/13 04:37:51;;;;;;;2.77;2.02;;;;;;;5.29;95.84;99507.09;1782970;80;25460;-50
2024/02/13 04:40:19;;;;;;;1.90;1.72;;;;;;;5.26;95.16;99517.05;1782944;80;25417;-53
2024/02/13 04:42:48;;;;;;;2.15;2.00;;;;;;;5.23;95.56;99512.53;1782931;80;27352;-50
2024/02/13 04:45:15;;;;;;;2.17;2.08;;;;;;;5.20;95.23;99521.15;1782520;80;25749;-54
2024/02/13 04:47:41;;;;;;;3.00;2.10;;;;;;;5.18;95.40;99528.70;1782941;80;25598;-51
2024/02/13 04:50:12;;;;;;;1.85;1.75;;;;;;;5.16;95.38;99524.70;1782890;80;26456;-50
2024/02/13 04:52:39;;;;;;;2.45;1.90;;;;;;;5.15;95.49;99530.61;1782978;80;25414;-50
2024/02/13 04:55:07;;;;;;;2.20;2.00;;;;;;;5.16;95.65;99532.73;1782892;80;28484;-51
2024/02/13 04:57:34;;;;;;;2.08;1.65;;;;;;;5.16;95.50;99541.59;1782833;80;25848;-50
2024/02/13 05:00:14;;;;;;;1.50;1.40;;;;;;;5.15;95.43;99546.70;1782893;80;25545;-52
2024/02/13 05:02:39;;;;;;;2.40;1.57;;;;;;;5.14;95.29;99546.46;1781123;80;25849;-50
2024/02/13 05:07:50;;;;;;;2.17;1.82;;;;;;;5.11;95.15;99555.60;1789670;80;28377;-51
2024/02/13 05:10:17;;;;;;;1.80;1.70;;;;;;;5.10;95.12;99560.17;1793161;80;25525;-50
2024/02/13 05:12:44;;;;;;;2.35;1.80;;;;;;;5.08;95.06;99560.22;1793216;80;25526;-51
2024/02/13 05:15:10;;;;;;;2.02;1.82;;;;;;;5.07;95.08;99561.30;1793205;80;25557;-51
2024/02/13 05:17:37;;;;;;;1.98;1.70;;;;;;;5.06;95.08;99565.87;1793255;80;25502;-51
2024/02/13 05:20:11;;;;;;;2.67;1.60;;;;;;;5.04;95.10;99564.03;1793186;80;27818;-50
2024/02/13 05:22:34;;;;;;;1.62;1.52;;;;;;;5.02;94.93;99570.20;1792174;80;25548;-50
2024/02/13 05:25:01;;;;;;;1.92;1.82;;;;;;;4.99;94.73;99578.30;1793189;80;25546;-51
2024/02/13 05:27:27;;;;;;;1.52;1.42;;;;;;;4.97;94.78;99582.33;1793138;80;26518;-51
2024/02/13 05:29:53;;;;;;;1.80;1.70;;;;;;;4.94;94.61;99582.91;1793211;80;25472;-50
2024/02/13 05:32:20;;;;;;;1.82;1.70;;;;;;;4.93;94.64;99597.41;1793155;80;27531;-51
2024/02/13 05:34:48;;;;;;;1.80;1.70;;;;;;;4.90;94.83;99593.95;1793069;80;26022;-51
2024/02/13 05:37:14;;;;;;;2.02;1.82;;;;;;;4.90;94.85;99604.13;1793219;80;25643;-52
2024/02/13 05:39:43;;;;;;;2.60;1.65;;;;;;;4.86;94.73;99602.56;1793177;80;25382;-51
2024/02/13 05:42:10;;;;;;;2.08;1.90;;;;;;;4.84;94.82;99605.30;1793229;80;25461;-50
2024/02/13 05:44:36;;;;;;;2.05;1.75;;;;;;;4.84;95.04;99606.63;1793213;80;27562;-51
2024/02/13 05:47:06;;;;;;;2.40;2.00;;;;;;;4.81;95.06;99622.73;1793038;80;25556;-53
2024/02/13 05:49:32;;;;;;;2.40;1.95;;;;;;;4.82;95.26;99630.25;1793264;80;25607;-52
2024/02/13 05:51:59;;;;;;;2.15;1.95;;;;;;;4.81;95.53;99633.45;1793153;80;25804;-51
2024/02/13 05:54:26;;;;;;;2.52;2.25;;;;;;;4.81;95.64;99635.34;1793233;80;25428;-51
2024/02/13 05:56:54;;;;;;;2.22;1.95;;;;;;;4.80;95.91;99641.25;1793166;80;28280;-52
2024/02/13 05:59:25;;;;;;;2.92;2.02;;;;;;;4.81;95.92;99644.72;1793099;80;25464;-52
2024/02/13 06:01:54;;;;;;;2.20;1.92;;;;;;;4.82;95.98;99651.68;1793000;80;25534;-52
2024/02/13 06:04:21;;;;;;;3.05;2.70;;;;;;;4.81;96.08;99660.23;1793415;80;25504;-53
2024/02/13 06:06:50;;;;;;;2.58;2.15;;;;;;;4.83;96.23;99659.41;1792804;80;25608;-52
2024/02/13 06:09:22;;;;;;;2.77;2.42;;;;;;;4.83;96.21;99670.67;1792620;80;27483;-52
2024/02/13 06:11:49;;;;;;;3.00;2.70;;;;;;;4.83;96.18;99680.84;1792150;80;25566;-52
2024/02/13 06:14:16;;;;;;;4.12;2.85;;;;;;;4.82;96.27;99689.98;1792098;80;25671;-54
2024/02/13 06:16:43;;;;;;;2.60;2.30;;;;;;;4.84;96.49;99693.17;1792028;80;25574;-54
2024/02/13 06:19:11;;;;;;;6.15;2.58;;;;;;;4.85;96.43;99698.80;1792384;80;25811;-53
2024/02/13 06:21:37;;;;;;;3.33;2.42;;;;;;;4.85;96.44;99703.34;1792127;80;28443;-54
2024/02/13 06:24:08;;;;;;;3.40;2.60;;;;;;;4.87;96.50;99703.87;1792490;80;25707;-52
2024/02/13 06:26:37;;;;;;;3.25;2.60;;;;;;;4.89;96.54;99710.27;1792977;80;25542;-51
2024/02/13 06:29:06;;;;;;;3.87;2.62;;;;;;;4.89;96.72;99709.74;1793283;80;25572;-50
2024/02/13 06:31:34;;;;;;;3.22;2.92;;;;;;;4.90;96.43;99715.34;1792634;80;25553;-50
2024/02/13 06:34:00;;;;;;;4.45;3.22;;;;;;;4.91;96.47;99723.66;1793180;80;28273;-50
2024/02/13 06:36:28;;;;;;;3.72;2.67;;;;;;;4.93;96.56;99734.09;1793079;80;25624;-51
2024/02/13 06:38:55;;;;;;;4.42;3.37;;;;;;;4.94;96.71;99734.33;1793252;80;25450;-53
2024/02/13 06:41:23;;;;;;;3.40;3.10;;;;;;;4.93;96.53;99728.18;1793155;80;25572;-50
2024/02/13 06:43:51;;;;;;;3.15;2.85;;;;;;;4.94;96.46;99732.98;1793180;80;25584;-53
2024/02/13 06:46:17;;;;;;;3.65;3.00;;;;;;;4.96;96.55;99740.23;1793306;80;28107;-51
2024/02/13 06:48:45;;;;;;;3.67;2.90;;;;;;;4.97;96.59;99745.83;1793226;80;26254;-52
2024/02/13 06:51:14;;;;;;;4.33;3.10;;;;;;;4.97;96.29;99749.33;1793352;80;25483;-53
2024/02/13 06:53:42;;;;;;;3.47;3.17;;;;;;;4.97;96.41;99747.17;1793279;80;26449;-53
2024/02/13 06:56:12;;;;;;;5.10;3.20;;;;;;;4.99;96.55;99754.41;1793655;80;25417;-51
2024/02/13 06:58:39;;;;;;;4.15;3.17;;;;;;;5.01;96.58;99764.30;1793491;80;27475;-52
2024/02/13 07:01:06;;;;;;;4.60;3.10;;;;;;;5.02;96.59;99764.53;1793245;80;25660;-52
2024/02/13 07:03:33;;;;;;;4.03;3.33;;;;;;;5.05;96.57;99770.67;1793330;80;25467;-51
2024/02/13 07:05:59;;;;;;;4.78;3.62;;;;;;;5.05;96.62;99773.35;1793233;80;26018;-55
2024/02/13 07:08:26;;;;;;;5.45;3.77;;;;;;;5.09;96.83;99774.41;1789485;80;25512;-55
2024/02/13 07:10:54;;;;;;;7.12;3.40;;;;;;;5.10;96.83;99774.64;1787446;80;28236;-51
2024/02/13 07:13:20;;;;;;;4.33;3.27;;;;;;;5.12;96.90;99777.83;1787429;80;25521;-52
2024/02/13 07:15:48;;;;;;;3.65;3.22;;;;;;;5.14;96.84;99781.05;1787450;80;25629;-54
2024/02/13 07:18:14;;;;;;;4.37;3.42;;;;;;;5.14;96.80;99781.57;1787432;80;25583;-56
2024/02/13 07:20:43;;;;;;;6.10;3.45;;;;;;;5.17;96.93;99796.54;1787479;80;25441;-54
2024/02/13 07:23:10;;;;;;;4.87;3.72;;;;;;;5.17;96.93;99793.86;1787534;80;27939;-54
2024/02/13 07:25:36;;;;;;;3.98;3.58;;;;;;;5.19;96.97;99797.59;1787330;80;25542;-51
2024/02/13 07:28:06;;;;;;;4.37;3.70;;;;;;;5.21;96.97;99803.47;1787430;80;25469;-51
2024/02/13 07:30:32;;;;;;;6.37;3.50;;;;;;;5.22;97.08;99806.42;1787449;80;25656;-52
2024/02/13 07:32:58;;;;;;;5.87;3.67;;;;;;;5.25;97.06;99811.22;1787523;80;25580;-54
2024/02/13 07:35:28;;;;;;;5.75;3.77;;;;;;;5.26;97.07;99812.83;1787475;80;27831;-51
2024/02/13 07:37:55;;;;;;;5.37;4.03;;;;;;;5.27;97.18;99806.36;1787475;80;25214;-51
2024/02/13 07:40:23;;;;;;;5.87;3.67;;;;;;;5.27;96.77;99805.02;1787481;80;25391;-53
2024/02/13 07:42:54;;;;;;;5.10;4.17;;;;;;;5.29;96.78;99812.78;1787605;80;26724;-54
2024/02/13 07:45:21;;;;;;;6.58;4.30;;;;;;;5.29;97.10;99813.58;1787611;80;25453;-53
2024/02/13 07:47:51;;;;;;;4.90;3.80;;;;;;;5.33;97.06;99817.83;1787481;80;28002;-51
2024/02/13 07:50:19;;;;;;;6.22;3.98;;;;;;;5.35;97.04;99826.41;1787405;80;25390;-53
2024/02/13 07:52:48;;;;;;;4.70;3.62;;;;;;;5.36;96.90;99825.30;1787447;80;25376;-52
2024/02/13 07:55:15;;;;;;;4.70;3.72;;;;;;;5.37;97.00;99825.58;1787388;80;25520;-54
2024/02/13 07:57:41;;;;;;;4.60;4.10;;;;;;;5.40;96.90;99829.83;1787465;80;25601;-52
2024/02/13 08:00:14;;;;;;;5.90;3.98;;;;;;;5.37;96.79;99826.36;1787402;80;27385;-51
2024/02/13 08:02:40;;;;;;;5.37;4.17;;;;;;;5.41;96.94;99835.45;1787381;80;25437;-51
2024/02/13 08:05:12;;;;;;;6.33;3.90;;;;;;;5.43;97.18;99841.33;1787419;80;25399;-51
2024/02/13 08:07:41;;;;;;;6.83;4.30;;;;;;;5.48;97.34;99839.66;1787292;80;25575;-52
2024/02/13 08:10:11;;;;;;;7.37;4.20;;;;;;;5.52;97.48;99849.55;1787705;80;25430;-53
2024/02/13 08:12:40;;;;;;;6.12;4.05;;;;;;;5.56;97.38;99855.13;1787471;80;27807;-52
2024/02/13 08:15:11;;;;;;;6.42;4.22;;;;;;;5.59;97.51;99855.91;1787534;80;25534;-52
2024/02/13 08:17:40;;;;;;;6.50;4.37;;;;;;;5.64;97.75;99849.14;1787485;80;25583;-51
2024/02/13 08:20:10;;;;;;;6.58;4.92;;;;;;;5.70;97.77;99847.19;1787518;80;32799;-51
2024/02/13 08:22:40;;;;;;;5.30;3.92;;;;;;;5.74;97.67;99856.28;1787489;80;25450;-53
2024/02/13 08:25:10;;;;;;;7.50;4.40;;;;;;;5.79;97.62;99855.66;1787428;80;27529;-51
2024/02/13 08:27:40;;;;;;;7.40;5.00;;;;;;;5.85;97.62;99851.02;1787369;80;25589;-51
2024/02/13 08:30:11;;;;;;;6.58;4.62;;;;;;;5.88;97.42;99863.87;1787456;80;25493;-51
2024/02/13 08:32:44;;;;;;;5.80;4.90;;;;;;;5.91;97.55;99867.33;1787392;80;26283;-54
2024/02/13 08:35:18;;;;;;;9.55;5.22;;;;;;;5.97;98.02;99868.88;1787434;80;25580;-52
2024/02/13 08:37:44;;;;;;;6.72;5.03;;;;;;;6.01;97.65;99871.81;1787211;80;27482;-51
2024/02/13 08:40:14;;;;;;;7.17;5.12;;;;;;;6.03;97.34;99866.13;1787300;80;25530;-52
2024/02/13 08:42:43;;;;;;;7.65;5.35;;;;;;;6.07;97.31;99872.53;1787413;80;25548;-52
2024/02/13 08:45:10;;;;;;;10.20;5.87;;;;;;;6.09;97.31;99871.14;1787491;80;25842;-51
2024/02/13 08:47:41;;;;;;;10.98;5.33;;;;;;;6.14;97.57;99871.63;1787401;80;25413;-51
2024/02/13 08:50:12;;;;;;;;;;;;;;;6.15;97.02;99867.31;1790091;80;27459;-52
2024/02/13 08:52:39;;;;;;;11.10;5.55;;;;;;;6.19;96.93;99875.58;1787362;80;25563;-51
2024/02/13 08:55:10;;;;;;;8.93;5.62;;;;;;;6.21;97.12;99872.61;1787473;80;25455;-52
2024/02/13 08:57:37;;;;;;;10.30;6.62;;;;;;;6.26;97.41;99881.39;1787376;80;25625;-51
2024/02/13 09:00:15;;;;;;;12.45;6.10;;;;;;;6.29;97.11;99883.50;1787507;80;25394;-51
2024/02/13 09:02:42;;;;;;;11.08;6.17;;;;;;;6.35;97.10;99890.41;1787376;80;28510;-51
2024/02/13 09:05:12;;;;;;;11.18;6.28;;;;;;;6.40;97.17;99883.35;1787408;80;26154;-51
2024/02/13 09:07:40;;;;;;;9.73;6.22;;;;;;;6.45;96.81;99885.97;1787481;80;25529;-51
2024/02/13 09:10:12;;;;;;;9.28;6.28;;;;;;;6.49;96.86;99893.72;1793310;80;25541;-51
2024/02/13 09:12:45;;;;;;;15.08;7.25;;;;;;;6.55;96.76;99896.56;1793294;80;25638;-53
2024/02/13 09:15:12;;;;;;;9.03;6.53;;;;;;;6.60;96.81;99905.11;1792211;80;27480;-53
2024/02/13 09:17:45;;;;;;;;;;;;;;;6.64;96.69;99908.27;1795825;80;25442;-52
2024/02/13 09:20:15;;;;;;;11.15;6.78;;;;;;;6.69;96.55;99902.81;1793258;80;25481;-52
2024/02/13 09:22:45;;;;;;;11.10;7.30;;;;;;;6.74;96.96;99907.30;1793220;80;26713;-54
2024/02/13 09:25:21;;;;;;;14.93;7.97;;;;;;;6.81;96.86;99920.36;1792293;80;25395;-51
2024/02/13 09:27:51;;;;;;;14.00;7.33;;;;;;;6.86;96.69;99917.59;1793182;80;28430;-52
2024/02/13 09:30:21;;;;;;;15.70;7.40;;;;;;;6.91;96.87;99926.41;1793175;80;26225;-50
2024/02/13 09:32:49;;;;;;;18.42;7.35;;;;;;;6.97;96.44;99921.73;1793219;80;25467;-52
2024/02/13 09:35:19;;;;;;;11.68;7.12;;;;;;;6.99;96.44;99923.58;1793175;80;26628;-52
2024/02/13 09:37:45;;;;;;;12.98;7.95;;;;;;;7.02;96.33;99936.99;1793402;80;25600;-52
2024/02/13 09:40:16;;;;;;;13.00;7.60;;;;;;;7.02;96.22;99932.41;1793291;80;28056;-51
2024/02/13 09:42:45;;;;;;;13.10;8.18;;;;;;;7.00;95.89;99935.13;1793291;80;25563;-53
2024/02/13 09:45:16;;;;;;;12.85;7.78;;;;;;;6.98;96.00;99940.00;1793246;80;25592;-54
2024/02/13 09:47:45;;;;;;;11.65;8.15;;;;;;;6.97;96.00;99930.36;1793175;80;26205;-52
2024/02/13 09:50:15;;;;;;;14.43;8.85;;;;;;;6.96;96.02;99944.33;1793397;80;25463;-51
2024/02/13 09:52:57;;;;;;;13.50;8.45;;;;;;;6.94;95.60;99949.20;1793178;80;27523;-54
2024/02/13 09:55:28;;;;;;;16.35;7.85;;;;;;;6.92;95.38;99947.36;1793165;80;25831;-53
2024/02/13 09:57:56;;;;;;;13.03;8.20;;;;;;;6.86;95.06;99952.02;1793263;80;25478;-51
2024/02/13 10:00:26;;;;;;;14.53;7.65;;;;;;;6.85;95.46;99957.14;1793171;80;25522;-52
2024/02/13 10:02:55;;;;;;;11.73;7.90;;;;;;;6.84;94.91;99960.11;1793299;80;25616;-53
2024/02/13 10:05:25;;;;;;;13.30;8.53;;;;;;;6.83;95.17;99969.28;1793284;80;28425;-52
2024/02/13 10:07:51;;;;;;;;;;;;;;;6.79;94.71;99965.56;1795886;80;25854;-51
2024/02/13 10:10:18;;;;;;;14.45;8.13;;;;;;;6.74;94.58;99966.43;1787581;80;25315;-52
2024/02/13 10:12:58;;;;;;;11.93;7.42;;;;;;;6.70;94.35;99963.53;1787323;80;26532;-52
2024/02/13 10:15:42;;;;;;;15.15;8.65;;;;;;;6.68;94.69;99967.06;1787354;80;25609;-52
2024/02/13 10:18:13;;;;;;;13.48;7.90;;;;;;;6.68;94.83;99976.47;1787309;80;27470;-51
2024/02/13 10:20:46;;;;;;;17.02;8.35;;;;;;;6.68;94.95;99975.67;1787452;80;25576;-55
2024/02/13 10:23:18;;;;;;;15.32;7.95;;;;;;;6.72;95.24;99984.74;1787608;80;25616;-55
2024/02/13 10:25:47;;;;;;;13.50;7.87;;;;;;;6.75;95.52;99976.66;1787322;80;25516;-54
2024/02/13 10:28:19;;;;;;;12.10;7.92;;;;;;;6.78;95.29;99970.16;1787544;80;25197;-53
2024/02/13 10:30:52;;;;;;;13.40;7.87;;;;;;;6.77;94.65;99984.67;1756392;81;27516;-55
2024/02/13 10:33:19;;;;;;;14.78;8.15;;;;;;;6.76;94.61;99987.64;1756316;81;25401;-54
2024/02/13 10:35:52;;;;;;;13.20;7.78;;;;;;;6.77;94.46;99989.25;1756485;81;25467;-52
2024/02/13 10:38:23;;;;;;;11.68;7.37;;;;;;;6.75;94.19;99984.72;1755072;81;25851;-52
2024/02/13 10:40:57;;;;;;;13.75;8.63;;;;;;;6.75;94.01;99990.09;1727044;81;25594;-54
2024/02/13 10:43:27;;;;;;;11.78;7.28;;;;;;;6.75;93.94;99995.48;1786871;80;27892;-52
2024/02/13 10:46:00;;;;;;;12.58;7.75;;;;;;;6.75;94.07;99995.48;1756385;81;25386;-52
2024/02/13 10:48:41;;;;;;;10.88;7.45;;;;;;;6.80;94.38;99994.84;1727003;81;25670;-52
2024/02/13 10:51:11;;;;;;;11.95;6.92;;;;;;;6.85;94.09;99992.09;1756427;81;25499;-53
2024/02/13 10:53:37;;;;;;;12.47;7.53;;;;;;;6.88;93.63;100008.20;1726725;81;25482;-52
2024/02/13 10:56:08;;;;;;;11.53;7.12;;;;;;;6.92;93.72;100006.52;1756340;81;27848;-52
2024/02/13 10:58:37;;;;;;;11.43;6.97;;;;;;;7.00;94.07;100012.58;1756336;81;25417;-54
2024/02/13 11:01:06;;;;;;;16.82;6.45;;;;;;;7.03;92.30;100006.63;1756385;81;34670;-54
2024/02/13 11:03:38;;;;;;;9.65;6.45;;;;;;;7.02;91.71;100010.95;1756433;81;25669;-54
2024/02/13 11:06:07;;;;;;;13.20;6.35;;;;;;;7.01;91.79;100009.34;1756476;81;25424;-52
2024/02/13 11:08:36;;;;;;;10.00;6.20;;;;;;;6.98;91.47;100013.95;1756288;81;28477;-54
2024/02/13 11:11:16;;;;;;;10.13;6.20;;;;;;;6.99;91.41;100014.22;1756396;81;25541;-51
2024/02/13 11:13:46;;;;;;;15.95;6.60;;;;;;;6.96;90.78;100018.83;1756334;81;25558;-54
2024/02/13 11:16:13;;;;;;;11.65;6.45;;;;;;;6.91;90.70;100014.31;1756269;81;25612;-53
2024/02/13 11:18:52;;;;;;;10.15;6.12;;;;;;;6.87;90.63;100022.16;1756319;81;25409;-52
2024/02/13 11:21:27;;;;;;;12.00;6.20;;;;;;;6.82;90.37;100023.58;1756285;81;27518;-55
2024/02/13 11:24:05;;;;;;;9.60;6.22;;;;;;;6.76;90.29;100028.79;1756178;81;25608;-48
2024/02/13 11:26:35;;;;;;;12.35;5.67;;;;;;;6.72;90.63;100031.26;1756287;81;25581;-48
2024/02/13 11:29:14;;;;;;;8.15;5.47;;;;;;;6.71;90.99;100028.86;1756242;81;26481;-48
2024/02/13 11:31:57;;;;;;;12.88;5.65;;;;;;;6.76;91.34;100034.69;1756091;81;25597;-48
2024/02/13 11:34:44;;;;;;;10.70;6.17;;;;;;;6.80;91.63;100029.01;1756278;81;27469;-48
2024/02/13 11:37:26;;;;;;;12.90;6.65;;;;;;;6.87;91.56;100028.89;1756142;81;25435;-48
2024/02/13 11:39:49;;;;;;;13.53;6.62;;;;;;;6.94;91.61;100027.73;1755569;81;25405;-48
2024/02/13 11:42:22;;;;;;;14.43;7.58;;;;;;;7.02;91.79;100029.22;1726589;81;25583;-48
2024/02/13 11:44:51;;;;;;;13.18;8.48;;;;;;;7.64;97.27;100028.25;1756339;81;25458;-49
2024/02/13 11:47:24;;;;;;;13.85;8.10;;;;;;;8.29;98.02;100031.39;1756399;81;32862;-49